createdAt,value
2019-03-29T00:00:21.824Z,9.00
2019-03-29T00:05:29.435Z,9.00
2019-03-29T00:10:35.327Z,9.00
2019-03-29T00:15:41.175Z,9.10
2019-03-29T00:20:47.926Z,9.00
2019-03-29T00:25:54.472Z,8.90
2019-03-29T00:31:00.358Z,8.80
2019-03-29T00:36:06.403Z,8.70
2019-03-29T00:41:12.391Z,8.70
2019-03-29T00:46:18.424Z,8.70
2019-03-29T00:51:24.944Z,8.50
2019-03-29T00:56:31.097Z,8.50
2019-03-29T01:01:37.282Z,8.40
2019-03-29T01:06:43.584Z,8.30
2019-03-29T01:11:49.979Z,8.20
2019-03-29T01:16:56.885Z,8.10
2019-03-29T01:22:02.928Z,8.00
2019-03-29T01:27:09.083Z,8.10
2019-03-29T01:32:15.374Z,8.10
2019-03-29T01:37:21.400Z,8.20
2019-03-29T01:42:27.258Z,8.20
2019-03-29T01:47:33.093Z,8.20
2019-03-29T01:52:39.360Z,8.20
2019-03-29T01:57:45.735Z,8.30
2019-03-29T02:02:51.989Z,8.20
2019-03-29T02:07:57.861Z,8.30
2019-03-29T02:13:03.777Z,8.20
2019-03-29T02:18:09.662Z,8.20
2019-03-29T02:23:15.543Z,8.10
2019-03-29T02:28:21.383Z,8.10
2019-03-29T02:33:27.228Z,8.10
2019-03-29T02:38:33.081Z,8.10
2019-03-29T02:43:38.988Z,8.20
2019-03-29T02:48:45.113Z,8.20
2019-03-29T02:53:51.129Z,8.20
2019-03-29T02:58:57.011Z,8.20
2019-03-29T03:04:02.841Z,8.10
2019-03-29T03:09:13.656Z,8.00
2019-03-29T03:14:16.147Z,8.00
2019-03-29T03:19:21.997Z,7.90
2019-03-29T03:24:27.945Z,7.80
2019-03-29T03:29:33.780Z,7.70
2019-03-29T03:34:39.621Z,7.60
2019-03-29T03:39:45.463Z,7.50
2019-03-29T03:44:51.344Z,7.40
2019-03-29T03:50:00.629Z,7.20
2019-03-29T03:55:05.043Z,7.10
2019-03-29T04:00:11.232Z,7.00
2019-03-29T04:05:17.078Z,6.80
2019-03-29T04:10:23.009Z,6.70
2019-03-29T04:15:28.865Z,6.50
2019-03-29T04:20:34.741Z,6.40
2019-03-29T04:25:41.655Z,6.20
2019-03-29T04:30:47.524Z,6.10
2019-03-29T04:35:53.380Z,6.20
2019-03-29T04:40:59.219Z,6.10
2019-03-29T04:46:05.068Z,6.00
2019-03-29T04:51:10.911Z,6.00
2019-03-29T04:56:16.771Z,5.80
2019-03-29T05:01:22.611Z,5.70
2019-03-29T05:06:28.471Z,5.70
2019-03-29T05:11:34.319Z,5.70
2019-03-29T05:16:40.175Z,5.70
2019-03-29T05:21:46.000Z,5.60
2019-03-29T05:26:51.863Z,5.60
2019-03-29T05:31:57.716Z,5.60
2019-03-29T05:37:03.543Z,5.80
2019-03-29T05:42:09.385Z,6.20
2019-03-29T05:47:15.227Z,6.60
2019-03-29T05:52:21.062Z,7.10
2019-03-29T05:57:26.947Z,7.50
2019-03-29T06:02:32.952Z,7.90
2019-03-29T06:07:38.799Z,8.50
2019-03-29T06:12:44.791Z,8.90
2019-03-29T06:17:50.627Z,9.10
2019-03-29T06:22:56.518Z,9.50
2019-03-29T06:28:02.371Z,10.10
2019-03-29T06:33:08.865Z,10.40
2019-03-29T06:38:15.583Z,10.70
2019-03-29T06:43:21.429Z,11.00
2019-03-29T06:48:27.214Z,11.00
2019-03-29T06:53:33.049Z,10.80
2019-03-29T06:58:39.760Z,10.70
2019-03-29T07:03:45.800Z,10.70
2019-03-29T07:08:51.720Z,11.10
2019-03-29T07:13:58.223Z,11.10
2019-03-29T07:19:05.155Z,11.60
2019-03-29T07:24:11.099Z,11.60
2019-03-29T07:29:16.952Z,11.80
2019-03-29T07:34:22.783Z,11.50
2019-03-29T07:39:28.637Z,11.60
2019-03-29T07:44:34.536Z,11.80
2019-03-29T07:49:40.390Z,12.10
2019-03-29T07:54:46.214Z,12.40
2019-03-29T07:59:52.060Z,12.80
2019-03-29T08:04:57.892Z,13.00
2019-03-29T08:10:04.287Z,13.00
2019-03-29T08:15:10.202Z,13.00
2019-03-29T08:20:38.805Z,13.20
2019-03-29T08:25:24.658Z,13.20
2019-03-29T08:30:30.527Z,13.40
2019-03-29T08:35:36.369Z,13.50
2019-03-29T08:40:45.043Z,13.50
2019-03-29T08:45:49.684Z,13.60
2019-03-29T08:50:55.515Z,13.80
2019-03-29T08:56:01.453Z,14.00
2019-03-29T09:01:07.312Z,13.80
2019-03-29T09:06:13.225Z,13.80
2019-03-29T09:11:19.143Z,13.90
2019-03-29T09:16:24.965Z,14.00
2019-03-29T09:21:30.798Z,14.60
2019-03-29T09:26:36.561Z,14.50
2019-03-29T09:31:42.406Z,14.40
2019-03-29T09:36:48.254Z,14.40
2019-03-29T09:41:54.100Z,14.50
2019-03-29T09:47:00.004Z,14.60
2019-03-29T09:52:06.792Z,14.90
2019-03-29T09:57:15.517Z,15.10
2019-03-29T10:02:20.123Z,15.30
2019-03-29T10:07:25.970Z,15.60
2019-03-29T10:12:42.596Z,15.80
2019-03-29T10:17:39.293Z,16.20
2019-03-29T10:22:45.124Z,16.40
2019-03-29T10:27:50.978Z,16.30
2019-03-29T10:32:56.838Z,16.60
2019-03-29T10:38:02.671Z,16.40
2019-03-29T10:43:08.512Z,17.00
2019-03-29T10:48:15.316Z,16.90
2019-03-29T10:53:21.156Z,16.30
2019-03-29T10:58:27.003Z,16.40
2019-03-29T11:03:32.853Z,16.90
2019-03-29T11:08:38.692Z,17.00
2019-03-29T11:13:44.551Z,17.30
2019-03-29T11:18:50.390Z,17.70
2019-03-29T11:23:56.236Z,17.70
2019-03-29T11:29:02.087Z,18.00
2019-03-29T11:34:07.929Z,18.20
2019-03-29T11:39:13.879Z,18.60
2019-03-29T11:44:19.709Z,18.60
2019-03-29T11:49:25.594Z,18.80
2019-03-29T11:54:31.400Z,18.50
2019-03-29T11:59:39.990Z,18.30
2019-03-29T12:04:44.734Z,18.40
2019-03-29T12:09:50.645Z,18.20
2019-03-29T12:14:56.416Z,18.20
2019-03-29T12:20:02.286Z,17.90
2019-03-29T12:25:08.422Z,17.70
2019-03-29T12:30:30.544Z,18.90
2019-03-29T12:35:22.307Z,19.00
2019-03-29T12:40:28.176Z,19.40
2019-03-29T12:45:34.095Z,20.10
2019-03-29T12:50:40.837Z,20.60
2019-03-29T12:55:47.485Z,20.50
2019-03-29T13:00:54.969Z,20.70
2019-03-29T13:06:05.164Z,20.20
2019-03-29T13:11:12.365Z,20.10
2019-03-29T13:16:19.446Z,20.60
2019-03-29T13:21:26.913Z,20.50
2019-03-29T13:26:35.328Z,20.50
2019-03-29T13:31:43.310Z,20.90
2019-03-29T13:36:51.801Z,21.10
2019-03-29T13:42:03.603Z,20.50
2019-03-29T13:47:11.524Z,20.90
2019-03-29T13:52:19.789Z,20.60
2019-03-29T13:57:27.505Z,19.70
2019-03-29T14:02:35.796Z,20.80
2019-03-29T14:07:42.361Z,22.50
2019-03-29T14:12:49.510Z,21.80
2019-03-29T14:17:57.905Z,22.40
2019-03-29T14:23:07.599Z,22.10
2019-03-29T14:28:15.307Z,22.00
2019-03-29T14:33:25.772Z,22.40
2019-03-29T14:38:33.706Z,21.70
2019-03-29T14:43:41.195Z,23.00
2019-03-29T14:48:48.825Z,22.30
2019-03-29T14:53:56.444Z,20.50
2019-03-29T14:59:04.549Z,20.90
2019-03-29T15:04:11.845Z,21.00
2019-03-29T15:09:19.889Z,21.50
2019-03-29T15:14:27.407Z,22.20
2019-03-29T15:19:34.930Z,22.20
2019-03-29T15:24:42.385Z,21.90
2019-03-29T15:29:49.807Z,21.60
2019-03-29T15:34:56.698Z,21.60
2019-03-29T15:40:03.641Z,21.40
2019-03-29T15:45:20.228Z,22.00
2019-03-29T15:50:20.007Z,21.80
2019-03-29T15:55:26.860Z,21.90
2019-03-29T16:00:33.905Z,21.50
2019-03-29T16:05:41.412Z,21.70
2019-03-29T16:10:48.680Z,21.20
2019-03-29T16:15:54.969Z,20.90
2019-03-29T16:21:01.818Z,20.70
2019-03-29T16:26:08.747Z,20.00
2019-03-29T16:31:16.007Z,19.30
2019-03-29T16:36:23.867Z,18.40
2019-03-29T16:41:30.671Z,17.90
2019-03-29T16:46:37.625Z,17.80
2019-03-29T16:51:44.340Z,17.80
2019-03-29T16:56:51.632Z,17.50
2019-03-29T17:01:57.858Z,17.30
2019-03-29T17:07:03.828Z,17.30
2019-03-29T17:12:10.591Z,17.30
2019-03-29T17:17:16.561Z,17.00
2019-03-29T17:22:24.737Z,16.30
2019-03-29T17:27:30.773Z,15.70
2019-03-29T17:32:36.731Z,15.20
2019-03-29T17:37:44.644Z,14.80
2019-03-29T17:42:50.689Z,14.60
2019-03-29T17:47:56.760Z,14.50
2019-03-29T17:53:02.767Z,14.30
2019-03-29T17:58:08.825Z,14.20
2019-03-29T18:03:14.807Z,13.90
2019-03-29T18:08:21.701Z,13.60
2019-03-29T18:13:27.787Z,13.40
2019-03-29T18:18:34.112Z,13.30
2019-03-29T18:23:40.078Z,13.20
2019-03-29T18:28:46.198Z,13.10
2019-03-29T18:33:52.103Z,12.80
2019-03-29T18:38:58.100Z,12.60
2019-03-29T18:44:04.044Z,12.50
2019-03-29T18:49:09.922Z,12.30
2019-03-29T18:54:15.784Z,12.10
2019-03-29T18:59:21.694Z,12.00
2019-03-29T19:04:27.691Z,11.80
2019-03-29T19:09:33.996Z,11.50
2019-03-29T19:14:41.590Z,11.30
2019-03-29T19:19:47.556Z,11.20
2019-03-29T19:24:53.711Z,11.00
2019-03-29T19:29:59.687Z,10.80
2019-03-29T19:35:07.406Z,10.70
2019-03-29T19:40:15.315Z,10.50
2019-03-29T19:45:22.860Z,10.40
2019-03-29T19:50:28.845Z,10.00
2019-03-29T19:55:36.463Z,10.00
2019-03-29T20:00:44.916Z,9.80
2019-03-29T20:05:52.441Z,9.60
2019-03-29T20:10:58.328Z,9.50
2019-03-29T20:16:04.319Z,9.40
2019-03-29T20:21:12.202Z,9.40
2019-03-29T20:26:19.999Z,9.20
2019-03-29T20:31:27.371Z,9.10
2019-03-29T20:36:33.430Z,8.90
2019-03-29T20:41:41.175Z,8.80
2019-03-29T20:46:49.361Z,8.90
2019-03-29T20:51:57.538Z,8.80
2019-03-29T20:57:07.378Z,8.70
2019-03-29T21:02:14.480Z,8.60
2019-03-29T21:07:22.678Z,9.00
2019-03-29T21:12:30.328Z,8.30
2019-03-29T21:17:38.350Z,8.10
2019-03-29T21:22:45.591Z,8.20
2019-03-29T21:27:51.648Z,8.10
2019-03-29T21:32:58.909Z,8.00
2019-03-29T21:38:06.545Z,7.80
2019-03-29T21:43:14.046Z,7.80
2019-03-29T21:48:28.701Z,7.60
2019-03-29T21:53:29.203Z,7.30
2019-03-29T21:58:39.954Z,7.10
2019-03-29T22:03:46.124Z,7.10
2019-03-29T22:08:54.227Z,7.00
2019-03-29T22:14:00.603Z,6.90
2019-03-29T22:19:06.750Z,6.90
2019-03-29T22:24:13.243Z,6.80
2019-03-29T22:29:19.403Z,6.70
2019-03-29T22:34:25.235Z,6.60
2019-03-29T22:39:31.096Z,6.40
2019-03-29T22:44:36.999Z,6.30
2019-03-29T22:49:43.875Z,6.40
2019-03-29T22:54:49.936Z,6.30
2019-03-29T22:59:56.416Z,6.30
2019-03-29T23:05:02.296Z,6.20
2019-03-29T23:10:08.506Z,6.20
2019-03-29T23:15:15.811Z,6.10
2019-03-29T23:20:21.934Z,6.00
2019-03-29T23:25:27.704Z,5.90
2019-03-29T23:30:33.626Z,6.00
2019-03-29T23:35:39.763Z,6.10
2019-03-29T23:40:45.914Z,5.90
2019-03-29T23:45:51.883Z,5.70
2019-03-29T23:50:58.890Z,5.50
2019-03-29T23:56:05.071Z,5.40
